createdAt,value
2023-05-05T00:11:04.087Z,4.10
2023-05-05T00:24:04.079Z,4.60
2023-05-05T00:37:04.102Z,4.60
2023-05-05T00:50:04.112Z,6.00
2023-05-05T01:03:04.175Z,4.60
2023-05-05T01:16:04.121Z,4.90
2023-05-05T01:29:04.131Z,5.80
2023-05-05T01:42:04.144Z,4.30
2023-05-05T01:55:04.144Z,4.80
2023-05-05T02:08:04.151Z,4.60
2023-05-05T02:21:04.149Z,5.60
2023-05-05T02:34:04.166Z,3.30
2023-05-05T02:47:04.195Z,3.10
2023-05-05T03:00:04.185Z,4.50
2023-05-05T03:13:04.201Z,4.30
2023-05-05T03:26:04.189Z,3.60
2023-05-05T03:39:04.178Z,3.00
2023-05-05T03:53:04.185Z,2.50
2023-05-05T04:07:04.186Z,3.50
2023-05-05T04:21:04.211Z,3.90
2023-05-05T04:36:04.200Z,2.90
2023-05-05T04:50:04.204Z,2.10
2023-05-05T05:04:04.257Z,2.10
2023-05-05T05:18:04.271Z,2.50
2023-05-05T05:32:04.299Z,3.00
2023-05-05T05:46:05.024Z,5.50
2023-05-05T06:00:04.250Z,6.70
2023-05-05T06:14:04.267Z,6.40
2023-05-05T06:28:04.288Z,5.30
2023-05-05T06:42:04.283Z,5.10
2023-05-05T06:56:04.295Z,6.60
2023-05-05T07:10:04.287Z,8.50
2023-05-05T07:24:04.300Z,10.00
2023-05-05T07:38:04.302Z,6.00
2023-05-05T07:52:04.338Z,7.00
2023-05-05T08:06:04.318Z,3.70
2023-05-05T08:20:04.317Z,3.30
2023-05-05T08:34:04.332Z,3.20
2023-05-05T08:48:04.415Z,20.90
2023-05-05T09:02:04.354Z,6.60
2023-05-05T09:16:04.349Z,5.50
2023-05-05T09:30:04.344Z,4.20
2023-05-05T09:44:04.353Z,5.70
2023-05-05T09:58:04.426Z,5.20
2023-05-05T10:12:04.376Z,4.00
2023-05-05T10:26:04.336Z,3.70
2023-05-05T10:40:04.358Z,3.80
2023-05-05T10:54:04.399Z,3.30
2023-05-05T11:08:04.378Z,4.20
2023-05-05T11:22:04.370Z,3.70
2023-05-05T11:36:06.345Z,3.80
2023-05-05T11:50:04.434Z,15.50
2023-05-05T12:04:04.489Z,14.60
2023-05-05T12:18:04.418Z,11.80
2023-05-05T12:32:04.442Z,12.80
2023-05-05T12:46:04.464Z,9.90
2023-05-05T13:00:04.439Z,10.70
2023-05-05T13:14:04.422Z,7.90
2023-05-05T13:28:04.425Z,7.40
2023-05-05T13:42:04.419Z,6.20
2023-05-05T13:56:04.410Z,5.60
2023-05-05T14:10:04.438Z,7.20
2023-05-05T14:24:04.448Z,6.50
2023-05-05T14:38:04.452Z,8.00
2023-05-05T14:52:04.434Z,5.70
2023-05-05T15:06:04.432Z,5.90
2023-05-05T15:20:04.460Z,4.80
2023-05-05T15:34:04.453Z,4.80
2023-05-05T15:48:04.630Z,4.00
2023-05-05T16:02:04.494Z,4.20
2023-05-05T16:16:04.462Z,3.70
2023-05-05T16:30:04.469Z,4.70
2023-05-05T16:44:04.467Z,4.30
2023-05-05T16:58:04.494Z,3.50
2023-05-05T17:12:04.487Z,3.40
2023-05-05T17:26:04.499Z,3.70
2023-05-05T17:40:04.500Z,3.30
2023-05-05T17:54:04.538Z,4.10
2023-05-05T18:08:04.503Z,6.20
2023-05-05T18:22:04.512Z,4.00
2023-05-05T18:36:04.524Z,6.30
2023-05-05T18:50:04.541Z,4.20
2023-05-05T19:04:06.942Z,4.20
2023-05-05T19:17:04.591Z,4.40
2023-05-05T19:30:04.556Z,4.00
2023-05-05T19:43:04.545Z,4.60
2023-05-05T19:56:04.559Z,3.35
2023-05-05T20:09:04.588Z,12.00
2023-05-05T20:22:04.592Z,9.80
2023-05-05T20:35:04.663Z,14.30
2023-05-05T20:48:04.656Z,15.50
2023-05-05T21:01:04.661Z,15.30
2023-05-05T21:14:04.655Z,15.00
2023-05-05T21:27:04.691Z,14.60
2023-05-05T21:40:04.667Z,14.55
2023-05-05T21:53:04.679Z,11.90
2023-05-05T22:06:04.673Z,11.80
2023-05-05T22:19:04.674Z,12.80
2023-05-05T22:32:04.670Z,10.60
2023-05-05T22:45:04.701Z,8.50
2023-05-05T22:58:04.696Z,9.95
2023-05-05T23:11:04.681Z,7.40
2023-05-05T23:24:04.718Z,8.80
2023-05-05T23:37:06.128Z,8.20
2023-05-05T23:50:04.742Z,7.90
